sensor_id;sensor_type;location;lat;lon;timestamp;P1;durP1;ratioP1;P2;durP2;ratioP2
42964;SDS011;28604;51.204;22.552;2023-03-15T00:01:44;14.90;;;8.90;;
42964;SDS011;28604;51.204;22.552;2023-03-15T00:04:14;12.75;;;8.40;;
42964;SDS011;28604;51.204;22.552;2023-03-15T00:06:40;14.77;;;8.40;;
42964;SDS011;28604;51.204;22.552;2023-03-15T00:09:06;13.30;;;7.88;;
42964;SDS011;28604;51.204;22.552;2023-03-15T00:11:32;12.77;;;7.68;;
42964;SDS011;28604;51.204;22.552;2023-03-15T00:13:58;17.45;;;8.57;;
42964;SDS011;28604;51.204;22.552;2023-03-15T00:16:26;14.20;;;8.63;;
42964;SDS011;28604;51.204;22.552;2023-03-15T00:18:53;11.60;;;8.27;;
42964;SDS011;28604;51.204;22.552;2023-03-15T00:21:19;13.07;;;8.50;;
42964;SDS011;28604;51.204;22.552;2023-03-15T00:23:46;14.18;;;9.18;;
42964;SDS011;28604;51.204;22.552;2023-03-15T00:26:13;13.02;;;8.30;;
42964;SDS011;28604;51.204;22.552;2023-03-15T00:28:39;12.27;;;8.75;;
42964;SDS011;28604;51.204;22.552;2023-03-15T00:31:16;16.05;;;8.80;;
42964;SDS011;28604;51.204;22.552;2023-03-15T00:33:44;12.15;;;8.32;;
42964;SDS011;28604;51.204;22.552;2023-03-15T00:36:11;13.02;;;7.97;;
42964;SDS011;28604;51.204;22.552;2023-03-15T00:38:38;14.30;;;8.93;;
42964;SDS011;28604;51.204;22.552;2023-03-15T00:41:10;13.63;;;8.38;;
42964;SDS011;28604;51.204;22.552;2023-03-15T00:43:39;12.85;;;7.75;;
42964;SDS011;28604;51.204;22.552;2023-03-15T00:46:05;15.30;;;8.43;;
42964;SDS011;28604;51.204;22.552;2023-03-15T00:48:32;15.45;;;8.95;;
42964;SDS011;28604;51.204;22.552;2023-03-15T00:51:11;13.68;;;8.57;;
42964;SDS011;28604;51.204;22.552;2023-03-15T00:53:40;15.73;;;8.43;;
42964;SDS011;28604;51.204;22.552;2023-03-15T00:56:15;13.85;;;8.48;;
42964;SDS011;28604;51.204;22.552;2023-03-15T00:58:46;12.48;;;8.45;;
42964;SDS011;28604;51.204;22.552;2023-03-15T01:01:13;12.77;;;7.50;;
42964;SDS011;28604;51.204;22.552;2023-03-15T01:03:41;14.07;;;8.32;;
42964;SDS011;28604;51.204;22.552;2023-03-15T01:06:17;12.50;;;7.60;;
42964;SDS011;28604;51.204;22.552;2023-03-15T01:08:45;12.35;;;7.72;;
42964;SDS011;28604;51.204;22.552;2023-03-15T01:11:12;13.63;;;7.22;;
42964;SDS011;28604;51.204;22.552;2023-03-15T01:13:43;12.05;;;7.80;;
42964;SDS011;28604;51.204;22.552;2023-03-15T01:16:10;9.00;;;6.95;;
42964;SDS011;28604;51.204;22.552;2023-03-15T01:18:37;10.93;;;7.70;;
42964;SDS011;28604;51.204;22.552;2023-03-15T01:21:07;11.25;;;8.20;;
42964;SDS011;28604;51.204;22.552;2023-03-15T01:23:34;13.13;;;7.78;;
42964;SDS011;28604;51.204;22.552;2023-03-15T01:26:03;13.27;;;8.75;;
42964;SDS011;28604;51.204;22.552;2023-03-15T01:28:32;13.25;;;7.82;;
42964;SDS011;28604;51.204;22.552;2023-03-15T01:30:58;9.45;;;7.50;;
42964;SDS011;28604;51.204;22.552;2023-03-15T01:33:24;13.23;;;8.13;;
42964;SDS011;28604;51.204;22.552;2023-03-15T01:36:01;11.15;;;8.18;;
42964;SDS011;28604;51.204;22.552;2023-03-15T01:38:29;16.75;;;8.23;;
42964;SDS011;28604;51.204;22.552;2023-03-15T01:40:56;12.70;;;7.43;;
42964;SDS011;28604;51.204;22.552;2023-03-15T01:43:23;12.55;;;8.65;;
42964;SDS011;28604;51.204;22.552;2023-03-15T01:53:59;9.23;;;7.30;;
42964;SDS011;28604;51.204;22.552;2023-03-15T01:56:33;11.35;;;7.38;;
42964;SDS011;28604;51.204;22.552;2023-03-15T01:59:01;12.30;;;7.93;;
42964;SDS011;28604;51.204;22.552;2023-03-15T02:01:29;15.73;;;7.78;;
42964;SDS011;28604;51.204;22.552;2023-03-15T02:04:00;14.15;;;8.15;;
42964;SDS011;28604;51.204;22.552;2023-03-15T02:07:01;15.82;;;8.13;;
42964;SDS011;28604;51.204;22.552;2023-03-15T02:09:36;13.23;;;8.20;;
42964;SDS011;28604;51.204;22.552;2023-03-15T02:12:27;12.05;;;7.65;;
42964;SDS011;28604;51.204;22.552;2023-03-15T02:14:56;13.93;;;7.55;;
42964;SDS011;28604;51.204;22.552;2023-03-15T02:17:27;13.88;;;7.53;;
42964;SDS011;28604;51.204;22.552;2023-03-15T02:23:04;11.65;;;8.13;;
42964;SDS011;28604;51.204;22.552;2023-03-15T02:25:50;9.45;;;7.45;;
42964;SDS011;28604;51.204;22.552;2023-03-15T02:28:42;12.00;;;8.27;;
42964;SDS011;28604;51.204;22.552;2023-03-15T02:31:11;13.93;;;8.13;;
42964;SDS011;28604;51.204;22.552;2023-03-15T02:33:39;10.05;;;7.72;;
42964;SDS011;28604;51.204;22.552;2023-03-15T02:38:44;14.30;;;8.40;;
42964;SDS011;28604;51.204;22.552;2023-03-15T02:41:11;13.38;;;8.27;;
42964;SDS011;28604;51.204;22.552;2023-03-15T02:43:37;12.75;;;8.55;;
42964;SDS011;28604;51.204;22.552;2023-03-15T02:46:05;10.52;;;8.20;;
42964;SDS011;28604;51.204;22.552;2023-03-15T02:48:32;11.23;;;7.40;;
42964;SDS011;28604;51.204;22.552;2023-03-15T02:51:01;15.02;;;7.05;;
42964;SDS011;28604;51.204;22.552;2023-03-15T02:53:30;13.55;;;8.52;;
42964;SDS011;28604;51.204;22.552;2023-03-15T02:55:56;12.07;;;7.85;;
42964;SDS011;28604;51.204;22.552;2023-03-15T02:58:23;13.02;;;7.75;;
42964;SDS011;28604;51.204;22.552;2023-03-15T03:00:51;10.32;;;7.15;;
42964;SDS011;28604;51.204;22.552;2023-03-15T03:03:17;11.82;;;7.55;;
42964;SDS011;28604;51.204;22.552;2023-03-15T03:05:43;9.40;;;7.25;;
42964;SDS011;28604;51.204;22.552;2023-03-15T03:08:09;9.55;;;6.60;;
42964;SDS011;28604;51.204;22.552;2023-03-15T03:10:36;6.63;;;4.30;;
42964;SDS011;28604;51.204;22.552;2023-03-15T03:13:01;3.65;;;3.35;;
42964;SDS011;28604;51.204;22.552;2023-03-15T03:15:34;3.13;;;2.92;;
42964;SDS011;28604;51.204;22.552;2023-03-15T03:18:00;2.72;;;2.53;;
42964;SDS011;28604;51.204;22.552;2023-03-15T03:20:26;4.32;;;2.83;;
42964;SDS011;28604;51.204;22.552;2023-03-15T03:22:52;2.42;;;2.33;;
42964;SDS011;28604;51.204;22.552;2023-03-15T03:25:20;5.00;;;2.10;;
42964;SDS011;28604;51.204;22.552;2023-03-15T03:27:46;3.40;;;1.98;;
42964;SDS011;28604;51.204;22.552;2023-03-15T03:30:13;2.65;;;2.45;;
42964;SDS011;28604;51.204;22.552;2023-03-15T03:32:44;3.30;;;1.83;;
42964;SDS011;28604;51.204;22.552;2023-03-15T03:35:12;1.73;;;1.60;;
42964;SDS011;28604;51.204;22.552;2023-03-15T03:37:37;2.33;;;2.22;;
42964;SDS011;28604;51.204;22.552;2023-03-15T03:40:12;1.73;;;1.40;;
42964;SDS011;28604;51.204;22.552;2023-03-15T03:42:39;1.92;;;1.83;;
42964;SDS011;28604;51.204;22.552;2023-03-15T03:45:05;2.60;;;2.10;;
42964;SDS011;28604;51.204;22.552;2023-03-15T03:47:36;1.90;;;1.80;;
42964;SDS011;28604;51.204;22.552;2023-03-15T03:50:03;1.92;;;1.77;;
42964;SDS011;28604;51.204;22.552;2023-03-15T03:52:29;1.67;;;1.60;;
42964;SDS011;28604;51.204;22.552;2023-03-15T03:55:03;2.20;;;2.10;;
42964;SDS011;28604;51.204;22.552;2023-03-15T03:57:29;3.40;;;2.08;;
42964;SDS011;28604;51.204;22.552;2023-03-15T03:59:55;1.98;;;1.90;;
42964;SDS011;28604;51.204;22.552;2023-03-15T04:02:22;4.25;;;3.40;;
42964;SDS011;28604;51.204;22.552;2023-03-15T04:05:02;4.80;;;4.15;;
42964;SDS011;28604;51.204;22.552;2023-03-15T04:07:28;3.88;;;3.58;;
42964;SDS011;28604;51.204;22.552;2023-03-15T04:09:55;3.80;;;3.50;;
42964;SDS011;28604;51.204;22.552;2023-03-15T04:12:20;4.05;;;3.78;;
42964;SDS011;28604;51.204;22.552;2023-03-15T04:14:47;4.05;;;3.75;;
42964;SDS011;28604;51.204;22.552;2023-03-15T04:17:14;3.53;;;3.33;;
42964;SDS011;28604;51.204;22.552;2023-03-15T04:19:41;2.70;;;2.60;;
42964;SDS011;28604;51.204;22.552;2023-03-15T04:22:11;2.75;;;2.65;;
42964;SDS011;28604;51.204;22.552;2023-03-15T04:25:15;2.13;;;2.03;;
42964;SDS011;28604;51.204;22.552;2023-03-15T04:28:01;1.25;;;1.25;;
42964;SDS011;28604;51.204;22.552;2023-03-15T04:30:46;0.82;;;0.82;;
42964;SDS011;28604;51.204;22.552;2023-03-15T04:33:39;0.60;;;0.60;;
42964;SDS011;28604;51.204;22.552;2023-03-15T04:36:24;0.98;;;0.98;;
42964;SDS011;28604;51.204;22.552;2023-03-15T04:39:07;2.03;;;1.00;;
42964;SDS011;28604;51.204;22.552;2023-03-15T04:41:50;1.20;;;0.82;;
42964;SDS011;28604;51.204;22.552;2023-03-15T04:44:30;1.77;;;0.60;;
42964;SDS011;28604;51.204;22.552;2023-03-15T04:47:08;2.60;;;0.65;;
42964;SDS011;28604;51.204;22.552;2023-03-15T04:49:48;1.55;;;1.10;;
42964;SDS011;28604;51.204;22.552;2023-03-15T04:52:29;1.38;;;1.27;;
42964;SDS011;28604;51.204;22.552;2023-03-15T04:55:09;1.70;;;1.42;;
42964;SDS011;28604;51.204;22.552;2023-03-15T04:57:54;2.22;;;2.17;;
42964;SDS011;28604;51.204;22.552;2023-03-15T05:00:46;2.00;;;1.90;;
42964;SDS011;28604;51.204;22.552;2023-03-15T05:03:30;1.60;;;1.60;;
42964;SDS011;28604;51.204;22.552;2023-03-15T05:06:17;2.20;;;1.75;;
42964;SDS011;28604;51.204;22.552;2023-03-15T05:09:01;2.40;;;1.55;;
42964;SDS011;28604;51.204;22.552;2023-03-15T05:12:03;0.98;;;0.98;;
42964;SDS011;28604;51.204;22.552;2023-03-15T05:14:30;1.20;;;1.00;;
42964;SDS011;28604;51.204;22.552;2023-03-15T05:20:01;1.20;;;1.00;;
42964;SDS011;28604;51.204;22.552;2023-03-15T05:22:44;1.00;;;1.00;;
42964;SDS011;28604;51.204;22.552;2023-03-15T05:25:18;1.20;;;1.20;;
42964;SDS011;28604;51.204;22.552;2023-03-15T05:28:12;1.30;;;1.00;;
42964;SDS011;28604;51.204;22.552;2023-03-15T05:31:09;1.17;;;1.17;;
42964;SDS011;28604;51.204;22.552;2023-03-15T05:34:05;1.42;;;1.23;;
42964;SDS011;28604;51.204;22.552;2023-03-15T05:36:53;2.85;;;1.27;;
42964;SDS011;28604;51.204;22.552;2023-03-15T05:39:36;1.35;;;0.90;;
42964;SDS011;28604;51.204;22.552;2023-03-15T05:42:13;1.38;;;1.27;;
42964;SDS011;28604;51.204;22.552;2023-03-15T05:44:57;1.92;;;1.80;;
42964;SDS011;28604;51.204;22.552;2023-03-15T05:47:41;2.17;;;1.90;;
42964;SDS011;28604;51.204;22.552;2023-03-15T05:50:29;2.45;;;2.22;;
42964;SDS011;28604;51.204;22.552;2023-03-15T05:53:15;3.72;;;2.20;;
42964;SDS011;28604;51.204;22.552;2023-03-15T05:56:01;2.25;;;1.83;;
42964;SDS011;28604;51.204;22.552;2023-03-15T05:58:55;3.40;;;1.90;;
42964;SDS011;28604;51.204;22.552;2023-03-15T06:01:39;4.10;;;1.95;;
42964;SDS011;28604;51.204;22.552;2023-03-15T06:04:13;6.85;;;2.67;;
42964;SDS011;28604;51.204;22.552;2023-03-15T06:06:39;2.50;;;1.50;;
42964;SDS011;28604;51.204;22.552;2023-03-15T06:09:08;3.33;;;1.67;;
42964;SDS011;28604;51.204;22.552;2023-03-15T06:11:34;3.65;;;1.58;;
42964;SDS011;28604;51.204;22.552;2023-03-15T06:14:00;3.63;;;1.80;;
42964;SDS011;28604;51.204;22.552;2023-03-15T06:16:35;9.07;;;2.28;;
42964;SDS011;28604;51.204;22.552;2023-03-15T06:19:03;2.65;;;1.58;;
42964;SDS011;28604;51.204;22.552;2023-03-15T06:21:30;4.05;;;1.70;;
42964;SDS011;28604;51.204;22.552;2023-03-15T06:23:56;3.65;;;1.88;;
42964;SDS011;28604;51.204;22.552;2023-03-15T06:26:22;9.20;;;2.03;;
42964;SDS011;28604;51.204;22.552;2023-03-15T06:28:52;3.60;;;2.10;;
42964;SDS011;28604;51.204;22.552;2023-03-15T06:31:18;5.28;;;1.60;;
42964;SDS011;28604;51.204;22.552;2023-03-15T06:33:53;4.70;;;1.67;;
42964;SDS011;28604;51.204;22.552;2023-03-15T06:36:19;6.07;;;2.10;;
42964;SDS011;28604;51.204;22.552;2023-03-15T06:38:45;7.32;;;1.77;;
42964;SDS011;28604;51.204;22.552;2023-03-15T06:41:11;3.60;;;1.60;;
42964;SDS011;28604;51.204;22.552;2023-03-15T06:43:40;2.30;;;1.40;;
42964;SDS011;28604;51.204;22.552;2023-03-15T06:46:05;6.68;;;1.40;;
42964;SDS011;28604;51.204;22.552;2023-03-15T06:48:32;4.20;;;2.08;;
42964;SDS011;28604;51.204;22.552;2023-03-15T06:50:58;7.80;;;1.52;;
42964;SDS011;28604;51.204;22.552;2023-03-15T06:53:24;3.53;;;1.33;;
42964;SDS011;28604;51.204;22.552;2023-03-15T06:55:50;4.63;;;1.17;;
42964;SDS011;28604;51.204;22.552;2023-03-15T06:58:16;5.10;;;1.38;;
42964;SDS011;28604;51.204;22.552;2023-03-15T07:00:42;2.80;;;1.67;;
42964;SDS011;28604;51.204;22.552;2023-03-15T07:03:09;6.13;;;2.38;;
42964;SDS011;28604;51.204;22.552;2023-03-15T07:05:35;4.90;;;1.90;;
42964;SDS011;28604;51.204;22.552;2023-03-15T07:08:02;6.28;;;1.45;;
42964;SDS011;28604;51.204;22.552;2023-03-15T07:10:27;2.50;;;1.23;;
42964;SDS011;28604;51.204;22.552;2023-03-15T07:12:54;9.05;;;1.25;;
42964;SDS011;28604;51.204;22.552;2023-03-15T07:15:19;1.95;;;1.17;;
42964;SDS011;28604;51.204;22.552;2023-03-15T07:17:46;2.88;;;1.50;;
42964;SDS011;28604;51.204;22.552;2023-03-15T07:20:11;5.28;;;1.02;;
42964;SDS011;28604;51.204;22.552;2023-03-15T07:22:37;4.40;;;1.15;;
42964;SDS011;28604;51.204;22.552;2023-03-15T07:25:03;5.03;;;1.73;;
42964;SDS011;28604;51.204;22.552;2023-03-15T07:27:32;3.10;;;1.10;;
42964;SDS011;28604;51.204;22.552;2023-03-15T07:29:57;4.97;;;1.50;;
42964;SDS011;28604;51.204;22.552;2023-03-15T07:32:25;4.47;;;1.00;;
42964;SDS011;28604;51.204;22.552;2023-03-15T07:34:51;3.25;;;1.60;;
42964;SDS011;28604;51.204;22.552;2023-03-15T07:37:17;5.75;;;1.88;;
42964;SDS011;28604;51.204;22.552;2023-03-15T07:39:43;5.50;;;1.67;;
42964;SDS011;28604;51.204;22.552;2023-03-15T07:42:09;5.00;;;2.10;;
42964;SDS011;28604;51.204;22.552;2023-03-15T07:44:40;8.05;;;1.90;;
42964;SDS011;28604;51.204;22.552;2023-03-15T07:47:06;4.00;;;1.85;;
42964;SDS011;28604;51.204;22.552;2023-03-15T07:49:32;4.40;;;1.27;;
42964;SDS011;28604;51.204;22.552;2023-03-15T07:51:59;6.45;;;2.20;;
42964;SDS011;28604;51.204;22.552;2023-03-15T07:54:24;5.30;;;2.83;;
42964;SDS011;28604;51.204;22.552;2023-03-15T07:56:50;9.73;;;2.72;;
42964;SDS011;28604;51.204;22.552;2023-03-15T07:59:16;5.55;;;2.97;;
42964;SDS011;28604;51.204;22.552;2023-03-15T08:01:42;6.22;;;3.20;;
42964;SDS011;28604;51.204;22.552;2023-03-15T08:04:11;4.35;;;2.63;;
42964;SDS011;28604;51.204;22.552;2023-03-15T08:06:39;6.03;;;2.70;;
42964;SDS011;28604;51.204;22.552;2023-03-15T08:09:05;6.38;;;3.67;;
42964;SDS011;28604;51.204;22.552;2023-03-15T08:11:32;5.15;;;3.05;;
42964;SDS011;28604;51.204;22.552;2023-03-15T08:13:58;8.90;;;3.03;;
42964;SDS011;28604;51.204;22.552;2023-03-15T08:16:24;5.32;;;3.45;;
42964;SDS011;28604;51.204;22.552;2023-03-15T08:18:50;7.15;;;3.10;;
42964;SDS011;28604;51.204;22.552;2023-03-15T08:21:16;9.82;;;4.45;;
42964;SDS011;28604;51.204;22.552;2023-03-15T08:23:42;9.05;;;4.45;;
42964;SDS011;28604;51.204;22.552;2023-03-15T08:26:08;11.55;;;4.13;;
42964;SDS011;28604;51.204;22.552;2023-03-15T08:28:34;12.00;;;3.63;;
42964;SDS011;28604;51.204;22.552;2023-03-15T08:31:00;8.18;;;4.05;;
42964;SDS011;28604;51.204;22.552;2023-03-15T08:33:29;10.63;;;4.53;;
42964;SDS011;28604;51.204;22.552;2023-03-15T08:35:57;9.20;;;3.90;;
42964;SDS011;28604;51.204;22.552;2023-03-15T08:38:23;5.60;;;3.38;;
42964;SDS011;28604;51.204;22.552;2023-03-15T08:40:54;7.07;;;3.65;;
42964;SDS011;28604;51.204;22.552;2023-03-15T08:43:23;6.47;;;3.10;;
42964;SDS011;28604;51.204;22.552;2023-03-15T08:45:49;8.80;;;3.88;;
42964;SDS011;28604;51.204;22.552;2023-03-15T08:48:16;5.68;;;3.63;;
42964;SDS011;28604;51.204;22.552;2023-03-15T08:50:42;9.63;;;3.80;;
42964;SDS011;28604;51.204;22.552;2023-03-15T08:53:08;4.68;;;3.00;;
42964;SDS011;28604;51.204;22.552;2023-03-15T08:55:35;3.65;;;2.78;;
42964;SDS011;28604;51.204;22.552;2023-03-15T08:58:02;7.80;;;3.00;;
42964;SDS011;28604;51.204;22.552;2023-03-15T09:00:29;8.68;;;3.70;;
42964;SDS011;28604;51.204;22.552;2023-03-15T09:02:55;16.58;;;2.88;;
42964;SDS011;28604;51.204;22.552;2023-03-15T09:05:22;10.43;;;3.08;;
42964;SDS011;28604;51.204;22.552;2023-03-15T09:07:49;7.50;;;3.05;;
42964;SDS011;28604;51.204;22.552;2023-03-15T09:10:18;9.02;;;2.65;;
42964;SDS011;28604;51.204;22.552;2023-03-15T09:12:45;9.15;;;2.30;;
42964;SDS011;28604;51.204;22.552;2023-03-15T09:15:12;8.35;;;3.00;;
42964;SDS011;28604;51.204;22.552;2023-03-15T09:17:39;7.03;;;2.75;;
42964;SDS011;28604;51.204;22.552;2023-03-15T09:20:07;11.85;;;3.08;;
42964;SDS011;28604;51.204;22.552;2023-03-15T09:22:50;8.90;;;3.42;;
42964;SDS011;28604;51.204;22.552;2023-03-15T09:25:21;8.48;;;2.88;;
42964;SDS011;28604;51.204;22.552;2023-03-15T09:27:48;10.65;;;3.72;;
42964;SDS011;28604;51.204;22.552;2023-03-15T09:30:15;7.95;;;4.00;;
42964;SDS011;28604;51.204;22.552;2023-03-15T09:32:41;17.17;;;3.80;;
42964;SDS011;28604;51.204;22.552;2023-03-15T09:35:09;8.63;;;3.08;;
42964;SDS011;28604;51.204;22.552;2023-03-15T09:37:38;5.68;;;3.55;;
42964;SDS011;28604;51.204;22.552;2023-03-15T09:40:04;8.68;;;3.55;;
42964;SDS011;28604;51.204;22.552;2023-03-15T09:45:39;9.60;;;3.15;;
42964;SDS011;28604;51.204;22.552;2023-03-15T09:48:11;9.07;;;3.42;;
42964;SDS011;28604;51.204;22.552;2023-03-15T09:50:53;8.05;;;3.45;;
42964;SDS011;28604;51.204;22.552;2023-03-15T09:53:29;12.25;;;3.65;;
42964;SDS011;28604;51.204;22.552;2023-03-15T09:56:02;10.27;;;2.90;;
42964;SDS011;28604;51.204;22.552;2023-03-15T09:58:32;9.77;;;2.95;;
42964;SDS011;28604;51.204;22.552;2023-03-15T10:01:01;7.13;;;3.20;;
42964;SDS011;28604;51.204;22.552;2023-03-15T10:03:39;8.05;;;3.22;;
42964;SDS011;28604;51.204;22.552;2023-03-15T10:06:11;9.35;;;2.72;;
42964;SDS011;28604;51.204;22.552;2023-03-15T10:08:43;4.73;;;2.33;;
42964;SDS011;28604;51.204;22.552;2023-03-15T10:16:50;4.78;;;2.15;;
42964;SDS011;28604;51.204;22.552;2023-03-15T10:19:20;5.30;;;2.53;;
42964;SDS011;28604;51.204;22.552;2023-03-15T10:21:55;6.60;;;2.33;;
42964;SDS011;28604;51.204;22.552;2023-03-15T10:24:39;7.57;;;2.97;;
42964;SDS011;28604;51.204;22.552;2023-03-15T10:27:19;5.47;;;2.67;;
42964;SDS011;28604;51.204;22.552;2023-03-15T10:30:00;6.80;;;2.58;;
42964;SDS011;28604;51.204;22.552;2023-03-15T10:32:37;9.57;;;2.63;;
42964;SDS011;28604;51.204;22.552;2023-03-15T10:35:14;6.78;;;2.70;;
42964;SDS011;28604;51.204;22.552;2023-03-15T10:37:42;10.45;;;2.75;;
42964;SDS011;28604;51.204;22.552;2023-03-15T10:40:09;7.88;;;2.33;;
42964;SDS011;28604;51.204;22.552;2023-03-15T10:42:43;6.22;;;2.40;;
42964;SDS011;28604;51.204;22.552;2023-03-15T10:45:20;9.82;;;3.25;;
42964;SDS011;28604;51.204;22.552;2023-03-15T10:47:49;6.57;;;2.83;;
42964;SDS011;28604;51.204;22.552;2023-03-15T10:50:26;4.68;;;2.47;;
42964;SDS011;28604;51.204;22.552;2023-03-15T10:52:56;9.32;;;3.50;;
42964;SDS011;28604;51.204;22.552;2023-03-15T10:55:34;7.97;;;2.72;;
42964;SDS011;28604;51.204;22.552;2023-03-15T10:58:11;8.68;;;3.28;;
42964;SDS011;28604;51.204;22.552;2023-03-15T11:00:50;4.40;;;2.92;;
42964;SDS011;28604;51.204;22.552;2023-03-15T11:03:19;8.85;;;3.38;;
42964;SDS011;28604;51.204;22.552;2023-03-15T11:05:48;6.90;;;3.10;;
42964;SDS011;28604;51.204;22.552;2023-03-15T11:08:17;7.60;;;3.28;;
42964;SDS011;28604;51.204;22.552;2023-03-15T11:10:46;7.70;;;3.35;;
42964;SDS011;28604;51.204;22.552;2023-03-15T11:13:21;13.52;;;3.30;;
42964;SDS011;28604;51.204;22.552;2023-03-15T11:16:06;8.93;;;3.35;;
42964;SDS011;28604;51.204;22.552;2023-03-15T11:21:12;6.70;;;3.35;;
42964;SDS011;28604;51.204;22.552;2023-03-15T11:23:40;10.02;;;3.15;;
42964;SDS011;28604;51.204;22.552;2023-03-15T11:26:21;13.75;;;4.13;;
42964;SDS011;28604;51.204;22.552;2023-03-15T11:28:49;8.73;;;4.00;;
42964;SDS011;28604;51.204;22.552;2023-03-15T11:31:19;11.98;;;4.10;;
42964;SDS011;28604;51.204;22.552;2023-03-15T11:34:08;13.20;;;3.70;;
42964;SDS011;28604;51.204;22.552;2023-03-15T11:36:41;8.23;;;4.05;;
42964;SDS011;28604;51.204;22.552;2023-03-15T11:39:11;6.68;;;3.55;;
42964;SDS011;28604;51.204;22.552;2023-03-15T11:41:54;5.75;;;3.08;;
42964;SDS011;28604;51.204;22.552;2023-03-15T11:49:59;9.13;;;4.35;;
42964;SDS011;28604;51.204;22.552;2023-03-15T11:52:25;7.80;;;3.45;;
42964;SDS011;28604;51.204;22.552;2023-03-15T11:54:57;6.72;;;3.33;;
42964;SDS011;28604;51.204;22.552;2023-03-15T11:57:36;7.85;;;3.22;;
42964;SDS011;28604;51.204;22.552;2023-03-15T12:00:17;8.68;;;3.40;;
42964;SDS011;28604;51.204;22.552;2023-03-15T12:02:57;12.65;;;3.92;;
42964;SDS011;28604;51.204;22.552;2023-03-15T12:05:41;4.82;;;2.75;;
42964;SDS011;28604;51.204;22.552;2023-03-15T12:10:49;5.32;;;3.13;;
42964;SDS011;28604;51.204;22.552;2023-03-15T12:13:17;8.25;;;3.08;;
42964;SDS011;28604;51.204;22.552;2023-03-15T12:18:15;8.55;;;2.92;;
42964;SDS011;28604;51.204;22.552;2023-03-15T12:20:48;9.55;;;3.47;;
42964;SDS011;28604;51.204;22.552;2023-03-15T12:23:39;7.90;;;3.05;;
42964;SDS011;28604;51.204;22.552;2023-03-15T12:26:47;6.00;;;3.00;;
42964;SDS011;28604;51.204;22.552;2023-03-15T12:29:23;7.55;;;3.00;;
42964;SDS011;28604;51.204;22.552;2023-03-15T12:37:08;5.03;;;3.00;;
42964;SDS011;28604;51.204;22.552;2023-03-15T12:53:03;11.10;;;3.90;;
42964;SDS011;28604;51.204;22.552;2023-03-15T12:55:38;10.07;;;3.67;;
42964;SDS011;28604;51.204;22.552;2023-03-15T12:58:05;6.93;;;3.30;;
42964;SDS011;28604;51.204;22.552;2023-03-15T13:00:35;10.15;;;3.45;;
42964;SDS011;28604;51.204;22.552;2023-03-15T13:03:05;6.72;;;2.65;;
42964;SDS011;28604;51.204;22.552;2023-03-15T13:05:49;6.90;;;2.85;;
42964;SDS011;28604;51.204;22.552;2023-03-15T13:08:24;11.23;;;3.20;;
42964;SDS011;28604;51.204;22.552;2023-03-15T13:23:08;6.45;;;2.45;;
42964;SDS011;28604;51.204;22.552;2023-03-15T13:25:44;9.10;;;2.80;;
42964;SDS011;28604;51.204;22.552;2023-03-15T13:28:24;8.43;;;2.88;;
42964;SDS011;28604;51.204;22.552;2023-03-15T13:31:11;6.78;;;2.35;;
42964;SDS011;28604;51.204;22.552;2023-03-15T13:33:48;9.23;;;2.88;;
42964;SDS011;28604;51.204;22.552;2023-03-15T13:36:26;8.80;;;2.65;;
42964;SDS011;28604;51.204;22.552;2023-03-15T13:39:07;5.50;;;2.30;;
42964;SDS011;28604;51.204;22.552;2023-03-15T13:41:45;8.93;;;2.10;;
42964;SDS011;28604;51.204;22.552;2023-03-15T13:44:21;10.93;;;2.60;;
42964;SDS011;28604;51.204;22.552;2023-03-15T13:46:49;11.60;;;3.03;;
42964;SDS011;28604;51.204;22.552;2023-03-15T13:49:16;6.22;;;2.28;;
42964;SDS011;28604;51.204;22.552;2023-03-15T13:51:42;13.90;;;2.55;;
42964;SDS011;28604;51.204;22.552;2023-03-15T13:54:28;8.20;;;2.38;;
42964;SDS011;28604;51.204;22.552;2023-03-15T13:59:34;6.70;;;2.58;;
42964;SDS011;28604;51.204;22.552;2023-03-15T14:02:14;6.32;;;3.08;;
42964;SDS011;28604;51.204;22.552;2023-03-15T14:04:50;7.30;;;2.47;;
42964;SDS011;28604;51.204;22.552;2023-03-15T14:12:50;11.07;;;2.70;;
42964;SDS011;28604;51.204;22.552;2023-03-15T14:15:23;10.70;;;3.17;;
42964;SDS011;28604;51.204;22.552;2023-03-15T14:17:52;10.43;;;3.20;;
42964;SDS011;28604;51.204;22.552;2023-03-15T14:20:27;7.10;;;3.13;;
42964;SDS011;28604;51.204;22.552;2023-03-15T14:22:58;4.50;;;2.53;;
42964;SDS011;28604;51.204;22.552;2023-03-15T14:25:26;8.52;;;2.80;;
42964;SDS011;28604;51.204;22.552;2023-03-15T14:27:52;9.25;;;4.20;;
42964;SDS011;28604;51.204;22.552;2023-03-15T14:30:23;7.25;;;3.35;;
42964;SDS011;28604;51.204;22.552;2023-03-15T14:32:51;9.35;;;3.33;;
42964;SDS011;28604;51.204;22.552;2023-03-15T14:35:39;11.90;;;3.28;;
42964;SDS011;28604;51.204;22.552;2023-03-15T14:38:14;9.70;;;3.47;;
42964;SDS011;28604;51.204;22.552;2023-03-15T14:40:49;7.22;;;2.72;;
42964;SDS011;28604;51.204;22.552;2023-03-15T14:43:16;8.20;;;3.70;;
42964;SDS011;28604;51.204;22.552;2023-03-15T14:45:43;13.18;;;3.25;;
42964;SDS011;28604;51.204;22.552;2023-03-15T14:48:12;7.72;;;4.05;;
42964;SDS011;28604;51.204;22.552;2023-03-15T14:50:43;9.13;;;3.72;;
42964;SDS011;28604;51.204;22.552;2023-03-15T14:53:12;9.35;;;3.88;;
42964;SDS011;28604;51.204;22.552;2023-03-15T14:55:41;9.80;;;3.53;;
42964;SDS011;28604;51.204;22.552;2023-03-15T14:58:10;9.43;;;3.40;;
42964;SDS011;28604;51.204;22.552;2023-03-15T15:00:38;7.05;;;3.10;;
42964;SDS011;28604;51.204;22.552;2023-03-15T15:03:06;5.57;;;2.65;;
42964;SDS011;28604;51.204;22.552;2023-03-15T15:05:58;7.18;;;2.47;;
42964;SDS011;28604;51.204;22.552;2023-03-15T15:08:26;6.80;;;2.85;;
42964;SDS011;28604;51.204;22.552;2023-03-15T15:10:52;7.80;;;3.20;;
42964;SDS011;28604;51.204;22.552;2023-03-15T15:13:22;8.80;;;2.90;;
42964;SDS011;28604;51.204;22.552;2023-03-15T15:15:53;11.60;;;3.23;;
42964;SDS011;28604;51.204;22.552;2023-03-15T15:18:20;9.25;;;4.47;;
42964;SDS011;28604;51.204;22.552;2023-03-15T15:20:46;10.25;;;4.35;;
42964;SDS011;28604;51.204;22.552;2023-03-15T15:23:19;10.32;;;4.28;;
42964;SDS011;28604;51.204;22.552;2023-03-15T15:25:47;7.65;;;3.88;;
42964;SDS011;28604;51.204;22.552;2023-03-15T15:28:16;9.55;;;4.35;;
42964;SDS011;28604;51.204;22.552;2023-03-15T15:30:41;13.50;;;4.13;;
42964;SDS011;28604;51.204;22.552;2023-03-15T15:33:07;11.35;;;4.10;;
42964;SDS011;28604;51.204;22.552;2023-03-15T15:35:33;8.25;;;4.38;;
42964;SDS011;28604;51.204;22.552;2023-03-15T15:37:59;15.32;;;5.13;;
42964;SDS011;28604;51.204;22.552;2023-03-15T15:40:26;15.35;;;6.03;;
42964;SDS011;28604;51.204;22.552;2023-03-15T15:42:55;16.20;;;6.13;;
42964;SDS011;28604;51.204;22.552;2023-03-15T15:45:21;13.82;;;5.57;;
42964;SDS011;28604;51.204;22.552;2023-03-15T15:47:49;11.18;;;5.32;;
42964;SDS011;28604;51.204;22.552;2023-03-15T15:50:16;11.63;;;4.85;;
42964;SDS011;28604;51.204;22.552;2023-03-15T15:52:44;8.98;;;4.68;;
42964;SDS011;28604;51.204;22.552;2023-03-15T15:55:20;10.45;;;4.75;;
42964;SDS011;28604;51.204;22.552;2023-03-15T15:57:49;12.35;;;5.43;;
42964;SDS011;28604;51.204;22.552;2023-03-15T16:00:17;12.18;;;4.22;;
42964;SDS011;28604;51.204;22.552;2023-03-15T16:02:45;10.45;;;3.95;;
42964;SDS011;28604;51.204;22.552;2023-03-15T16:05:11;9.00;;;3.95;;
42964;SDS011;28604;51.204;22.552;2023-03-15T16:07:39;9.60;;;3.88;;
42964;SDS011;28604;51.204;22.552;2023-03-15T16:10:17;13.18;;;4.82;;
42964;SDS011;28604;51.204;22.552;2023-03-15T16:12:45;15.73;;;5.30;;
42964;SDS011;28604;51.204;22.552;2023-03-15T16:15:13;11.18;;;4.60;;